Flugplatz Mühlhausen

Für EDEQ sind keine METAR/TAF Berichte vorhanden.
Es werden die Flugwettermeldungen vom Flugplatz Erfurt in 38 km Entfernung angezeigt.

Bericht für EDDE

vom 17.09. um 13:20 UTC

Wind 19 kt aus 280°

Sichtweite 10 km oder mehr

gering bewölkt in 4600 ft

Temperatur 16.0°C

Taupunkt 6.0°C

Luftfeuchtigkeit 51%

Luftdruck 1017 hPa

EDDE 171320Z 28019KT 250V310 9999 FEW046 16/06 Q1017 TEMPO 28015G30KT

Prognose für EDDE

vom 17.09. um 00:00 UTC

Zwischen 00:00 UTC und 00:00 UTC

Wind 15 kt aus 280° in Böen 25 kt

Sichtweite 10 km oder mehr

gering bewölkt in 3500 ft


Zwischen 00:00 und 00:00 UTC übergehend zu

Wind 10 kt aus 280°

Sichtweite 10 km oder mehr

gering bewölkt in 3500 ft

TAF EDDE 171100Z 1712/1812 28015G25KT 9999 FEW035 BECMG 1716/1719 28010KT
Impressum